Terminal Aerodrome Forecast
Issued by NWS

Home | Current Version | Previous Version | Text Only | Print | Product List | Glossary On
Versions: 1 2 3 4 5 6 7 8 9 10 11 12 13 14 15 16 17 18 19 20 21
000
FTPA31 PHFO 311700
TAFJRF
TAF
PHJR 311739Z 3118/0118 VRB03KT P6SM FEW035
     FM312100 07007KT P6SM SCT025 BKN050
     FM010200 VRB03KT P6SM SCT050=

USA.gov is the U.S. government's official web portal to all federal, state and local government web resources and services.